CYTR

Trenton Airport

Trenton, , Canada
METAR CYTR 212300Z 23008KT 15SM FEW270 19/10 A2991 RMK CI1 SLP131
Observed Flight Rules
Jun-21 @ 23:00 UTC (55 minutes ago) Visual Flight Rules
Wind Visibility Clouds
230° at 8 knots 15 miles
  • Few at 27,000' AGL
Temperatures Readings
Current 19°C / 66°F
Dewpoint 10°C / 50°F
Humidity 56%
Altimeter 29.91" Hg
Pressure 1013.1 hPa
Elevation 86
METAR CYTR 212300Z 23008KT 15SM FEW270 19/10 A2991 RMK CI1 SLP131
Observed Flight Rules
Jun-21 @ 23:00 UTC
(55 minutes ago)
VFR
Wind Visibility
230° at 8 knots 15 miles
Clouds
  • Few at 27,000' AGL
Temperature Dewpoint
19°C / 66°F 10°C / 50°F
Humidity Altimeter Pressure
56% 29.91" Hg 1013.1 hPa